Time;durP1;ratioP1;P1;durP2;ratioP2;P2;SDS_P1;SDS_P2;PMS_P1;PMS_P2;Temp;Humidity;BMP_temperature;BMP_pressure;BME280_temperature;BME280_humidity;BME280_pressure;Samples;Min_cycle;Max_cycle;Signal;HPM_P1;HPM_P2
2022/12/18 00:01:58;;;;;;;9.45;9.05;;;;;;;1.92;100.00;101673.66;5013057;28;20026;-72
2022/12/18 00:04:25;;;;;;;9.70;9.20;;;;;;;1.92;100.00;101680.69;5015309;28;20338;-71
2022/12/18 00:06:51;;;;;;;9.70;9.20;;;;;;;1.70;100.00;101662.78;5013687;28;20029;-72
2022/12/18 00:09:17;;;;;;;9.77;9.27;;;;;;;1.88;100.00;101682.63;5015991;28;20025;-72
2022/12/18 00:11:42;;;;;;;9.30;8.90;;;;;;;2.02;100.00;101694.03;5015005;28;20384;-72
2022/12/18 00:14:10;;;;;;;9.40;9.00;;;;;;;1.92;100.00;101694.59;5014720;28;20061;-71
2022/12/18 00:16:36;;;;;;;9.00;8.60;;;;;;;2.05;100.00;101702.53;5014101;28;20022;-72
2022/12/18 00:19:03;;;;;;;8.90;8.50;;;;;;;1.89;100.00;101701.75;5012694;28;20384;-71
2022/12/18 00:21:30;;;;;;;10.00;9.50;;;;;;;1.94;100.00;101715.44;5014815;28;20030;-72
2022/12/18 00:23:55;;;;;;;9.15;8.75;;;;;;;2.01;100.00;101723.78;5015188;28;20068;-71
2022/12/18 00:26:32;;;;;;;9.30;8.90;;;;;;;1.99;100.00;101733.50;5014705;28;20029;-71
2022/12/18 00:29:02;;;;;;;9.20;8.80;;;;;;;1.96;100.00;101725.81;5012617;28;20033;-71
2022/12/18 00:31:27;;;;;;;9.50;9.00;;;;;;;1.94;100.00;101739.81;5013246;28;20036;-71
2022/12/18 00:33:56;;;;;;;10.48;9.90;;;;;;;1.58;100.00;101737.56;5013340;28;20497;-72
2022/12/18 00:36:25;;;;;;;9.38;8.98;;;;;;;1.90;100.00;101750.53;5014692;28;20021;-72
2022/12/18 00:38:51;;;;;;;9.18;8.77;;;;;;;1.79;100.00;101738.09;5013448;28;20033;-71
2022/12/18 00:44:03;;;;;;;9.20;8.80;;;;;;;1.97;100.00;101753.66;5014386;28;20025;-71
2022/12/18 00:46:28;;;;;;;9.23;8.82;;;;;;;1.85;100.00;101750.84;5013235;28;20033;-70
2022/12/18 00:48:54;;;;;;;9.52;9.10;;;;;;;1.83;100.00;101747.44;5014324;28;21669;-71
2022/12/18 00:51:19;;;;;;;9.98;9.48;;;;;;;1.88;100.00;101755.03;5014638;28;20026;-72
2022/12/18 00:53:46;;;;;;;9.68;9.18;;;;;;;1.56;100.00;101746.44;5014397;28;20057;-72
2022/12/18 00:56:11;;;;;;;9.90;9.40;;;;;;;1.54;100.00;101729.94;5014302;28;20021;-71
2022/12/18 00:58:37;;;;;;;9.38;8.98;;;;;;;1.54;100.00;101740.41;5013410;28;20083;-72
2022/12/18 01:01:06;;;;;;;9.45;9.02;;;;;;;1.46;100.00;101751.31;5014007;28;20030;-72
2022/12/18 01:03:31;;;;;;;10.10;9.60;;;;;;;1.18;100.00;101738.09;5013604;28;20034;-72
2022/12/18 01:05:57;;;;;;;9.80;9.30;;;;;;;1.47;100.00;101754.75;5014151;28;20052;-71
2022/12/18 01:08:23;;;;;;;9.70;9.20;;;;;;;1.45;100.00;101748.78;5013030;28;20444;-73
2022/12/18 01:10:48;;;;;;;9.35;8.95;;;;;;;1.44;100.00;101765.41;5012875;28;20029;-72
2022/12/18 01:13:14;;;;;;;9.70;9.23;;;;;;;1.26;100.00;101765.50;5013597;28;20029;-70
2022/12/18 01:15:40;;;;;;;9.70;9.20;;;;;;;1.05;100.00;101756.22;5012957;28;20064;-71
2022/12/18 01:18:06;;;;;;;9.75;9.30;;;;;;;1.05;100.00;101751.00;5012810;28;20026;-72
2022/12/18 01:20:32;;;;;;;9.65;9.20;;;;;;;1.04;100.00;101746.69;5013731;28;20022;-71
2022/12/18 01:22:57;;;;;;;9.38;8.98;;;;;;;1.09;100.00;101763.78;5013895;28;20396;-71
2022/12/18 01:25:23;;;;;;;10.13;9.63;;;;;;;1.14;100.00;101766.16;5012494;28;20034;-71
2022/12/18 01:27:48;;;;;;;9.80;9.30;;;;;;;0.81;100.00;101769.69;5013418;28;20033;-71
2022/12/18 01:30:14;;;;;;;9.85;9.35;;;;;;;0.84;100.00;101781.72;5012305;28;20032;-71
2022/12/18 01:32:39;;;;;;;9.50;9.10;;;;;;;0.78;100.00;101768.97;5013299;28;20033;-71
2022/12/18 01:35:06;;;;;;;10.18;9.68;;;;;;;0.61;100.00;101775.09;5013208;28;20033;-71
2022/12/18 01:37:31;;;;;;;10.00;9.50;;;;;;;0.77;100.00;101781.19;5012906;28;20037;-71
2022/12/18 01:39:57;;;;;;;9.65;9.25;;;;;;;0.74;100.00;101775.31;5012575;28;20028;-71
2022/12/18 01:42:23;;;;;;;9.80;9.30;;;;;;;0.57;100.00;101763.13;5012326;28;20412;-72
2022/12/18 01:45:00;;;;;;;10.05;9.55;;;;;;;0.67;100.00;101777.41;5012045;28;20017;-71
2022/12/18 01:47:53;;;;;;;9.70;9.25;;;;;;;0.65;100.00;101776.63;5013324;28;20104;-71
2022/12/18 01:50:24;;;;;;;10.10;9.60;;;;;;;0.44;100.00;101783.81;5006577;28;20084;-72
2022/12/18 01:52:53;;;;;;;10.00;9.50;;;;;;;0.32;100.00;101780.97;5015532;28;20099;-72
2022/12/18 01:55:23;;;;;;;9.70;9.20;;;;;;;0.28;100.00;101780.28;5012564;28;20022;-73
2022/12/18 01:57:53;;;;;;;9.52;9.13;;;;;;;0.27;100.00;101792.47;5011162;28;20030;-72
2022/12/18 02:00:21;;;;;;;9.50;9.10;;;;;;;0.04;100.00;101781.53;5010281;28;20040;-72
2022/12/18 02:02:47;;;;;;;9.57;9.18;;;;;;;0.19;100.00;101778.13;5013579;28;20053;-71
2022/12/18 02:05:22;;;;;;;9.30;8.90;;;;;;;0.12;100.00;101788.03;5012775;28;20030;-72
2022/12/18 02:08:10;;;;;;;9.90;9.40;;;;;;;0.09;100.00;101784.75;5010469;28;20534;-72
2022/12/18 02:10:49;;;;;;;9.40;9.00;;;;;;;0.13;100.00;101797.53;5012216;28;20500;-72
2022/12/18 02:13:29;;;;;;;10.20;9.70;;;;;;;-0.01;100.00;101798.22;5010915;28;20072;-71
2022/12/18 02:16:30;;;;;;;10.30;9.80;;;;;;;0.07;100.00;101799.63;5013110;28;20049;-71
2022/12/18 02:19:00;;;;;;;9.40;9.00;;;;;;;0.06;100.00;101803.16;5002618;28;20045;-71
2022/12/18 02:21:53;;;;;;;10.75;10.15;;;;;;;-0.12;100.00;101774.44;5009062;28;20049;-71
2022/12/18 02:25:00;;;;;;;9.80;9.30;;;;;;;-0.05;100.00;101811.50;5011590;28;20032;-71
2022/12/18 02:27:29;;;;;;;9.93;9.43;;;;;;;0.09;100.00;101816.06;5008356;28;20157;-71
2022/12/18 02:29:57;;;;;;;10.52;9.93;;;;;;;0.04;100.00;101820.66;5010807;28;20071;-71
2022/12/18 02:32:30;;;;;;;10.52;10.02;;;;;;;-0.11;100.00;101814.41;5012260;28;20105;-71
2022/12/18 02:34:58;;;;;;;9.60;9.20;;;;;;;-0.04;100.00;101829.69;5012538;28;20034;-72
2022/12/18 02:37:27;;;;;;;10.13;9.63;;;;;;;-0.04;100.00;101828.84;5011476;28;20033;-71
2022/12/18 02:39:56;;;;;;;10.25;9.75;;;;;;;-0.10;100.00;101824.78;5010988;28;20133;-71
2022/12/18 02:42:22;;;;;;;10.02;9.52;;;;;;;-0.08;100.00;101835.97;5012121;28;20374;-71
2022/12/18 02:44:50;;;;;;;9.60;9.10;;;;;;;-0.23;100.00;101839.31;5012496;28;20385;-71
2022/12/18 02:47:20;;;;;;;9.52;9.13;;;;;;;-0.10;100.00;101842.19;5012206;28;20030;-72
2022/12/18 02:49:57;;;;;;;9.55;9.15;;;;;;;-0.22;100.00;101853.19;5011197;28;20025;-71
2022/12/18 02:52:41;;;;;;;10.20;9.70;;;;;;;-0.15;100.00;101849.38;5011283;28;20050;-72
2022/12/18 02:55:28;;;;;;;9.77;9.38;;;;;;;-0.19;100.00;101860.88;5012568;28;20040;-72
2022/12/18 02:58:26;;;;;;;9.60;9.20;;;;;;;-0.18;100.00;101860.81;5010528;28;20037;-72
2022/12/18 03:01:09;;;;;;;9.95;9.45;;;;;;;-0.18;100.00;101863.41;5003649;28;20042;-71
2022/12/18 03:03:40;;;;;;;10.05;9.55;;;;;;;-0.28;100.00;101854.34;5041835;28;20723;-73
2022/12/18 03:06:12;;;;;;;10.95;10.35;;;;;;;-0.28;100.00;101873.44;5006711;28;20044;-72
2022/12/18 03:08:42;;;;;;;9.77;9.38;;;;;;;-0.15;100.00;101878.06;5012043;28;20028;-71
2022/12/18 03:11:10;;;;;;;9.80;9.40;;;;;;;-0.17;100.00;101885.97;5013900;28;20026;-71
2022/12/18 03:13:49;;;;;;;10.20;9.70;;;;;;;-0.06;100.00;101885.47;5012104;28;20038;-71
2022/12/18 03:16:22;;;;;;;9.57;9.13;;;;;;;-0.02;100.00;101887.84;5012130;28;20550;-72
2022/12/18 03:18:52;;;;;;;10.63;10.02;;;;;;;0.03;100.00;101889.41;5011625;28;20037;-71
2022/12/18 03:21:21;;;;;;;9.68;9.20;;;;;;;-0.18;100.00;101886.88;5012355;28;20080;-71
2022/12/18 03:23:50;;;;;;;9.38;8.98;;;;;;;-0.24;100.00;101894.16;5015231;28;20014;-71
2022/12/18 03:26:19;;;;;;;10.38;9.88;;;;;;;0.03;100.00;101911.13;5016002;28;20026;-71
2022/12/18 03:28:57;;;;;;;9.60;9.20;;;;;;;-0.04;100.00;101909.72;5016161;28;20026;-70
2022/12/18 03:31:27;;;;;;;10.05;9.55;;;;;;;-0.09;100.00;101909.06;5028895;28;20848;-72
2022/12/18 03:33:59;;;;;;;9.80;9.32;;;;;;;-0.04;100.00;101918.38;5015625;28;20389;-71
2022/12/18 03:36:25;;;;;;;9.90;9.40;;;;;;;-0.09;100.00;101909.06;5015678;28;20022;-71
2022/12/18 03:38:51;;;;;;;9.82;9.32;;;;;;;0.02;100.00;101919.88;5015655;28;20030;-71
2022/12/18 03:41:25;;;;;;;10.35;9.82;;;;;;;-0.03;100.00;101924.44;5013922;28;20088;-71
2022/12/18 03:43:51;;;;;;;9.25;8.85;;;;;;;-0.05;100.00;101931.50;5015476;28;20133;-73
2022/12/18 03:46:52;;;;;;;9.90;9.40;;;;;;;-0.02;100.00;101949.59;5015601;28;20116;-76
2022/12/18 03:49:32;;;;;;;10.15;9.65;;;;;;;0.00;100.00;101945.19;5004241;28;20120;-72
2022/12/18 03:52:09;;;;;;;10.02;9.52;;;;;;;-0.06;100.00;101945.47;5015096;28;20125;-72
2022/12/18 03:54:36;;;;;;;9.80;9.30;;;;;;;0.02;100.00;101956.38;5014287;28;20041;-70
2022/12/18 03:57:15;;;;;;;9.82;9.32;;;;;;;-0.05;100.00;101963.66;5014373;28;20034;-72
2022/12/18 03:59:44;;;;;;;9.23;8.82;;;;;;;-0.02;100.00;101968.72;5013634;28;20128;-72
2022/12/18 04:02:10;;;;;;;10.18;9.68;;;;;;;0.01;100.00;101972.13;5013886;28;20018;-72
2022/12/18 04:04:40;;;;;;;9.32;8.93;;;;;;;-0.17;100.00;101968.56;5015223;28;20013;-72
2022/12/18 04:07:06;;;;;;;10.00;9.50;;;;;;;-0.03;100.00;101981.84;5012452;28;20408;-71
2022/12/18 04:09:34;;;;;;;9.50;9.10;;;;;;;-0.02;100.00;101988.75;5015147;28;20624;-71
2022/12/18 04:11:59;;;;;;;9.80;9.30;;;;;;;-0.20;100.00;101982.63;5013013;28;20420;-73
2022/12/18 04:14:25;;;;;;;9.95;9.45;;;;;;;-0.11;100.00;101995.22;5011820;28;20034;-72
2022/12/18 04:16:50;;;;;;;9.63;9.20;;;;;;;-0.03;100.00;101997.47;5015154;28;20029;-73
2022/12/18 04:19:16;;;;;;;9.90;9.40;;;;;;;-0.12;100.00;102013.56;5014386;28;20033;-71
2022/12/18 04:21:42;;;;;;;9.88;9.38;;;;;;;-0.12;100.00;102000.53;5014936;28;20057;-71
2022/12/18 04:24:08;;;;;;;9.70;9.20;;;;;;;-0.11;100.00;102017.84;4997065;28;20029;-71
2022/12/18 04:26:33;;;;;;;10.45;9.95;;;;;;;-0.03;100.00;102016.59;5016374;28;20017;-72
2022/12/18 04:28:59;;;;;;;10.20;9.70;;;;;;;0.02;100.00;102021.59;5012670;28;20040;-71
2022/12/18 04:31:25;;;;;;;10.30;9.77;;;;;;;0.00;100.00;102031.28;5012996;28;20038;-70
2022/12/18 04:33:50;;;;;;;9.68;9.23;;;;;;;-0.01;100.00;102016.50;5013236;28;20370;-72
2022/12/18 04:36:16;;;;;;;9.90;9.40;;;;;;;-0.08;100.00;102023.75;5014566;28;20049;-72
2022/12/18 04:38:41;;;;;;;9.65;9.15;;;;;;;-0.05;100.00;102033.25;5013202;28;20108;-71
2022/12/18 04:41:07;;;;;;;9.75;9.25;;;;;;;-0.01;100.00;102021.72;5014548;28;20412;-73
2022/12/18 04:43:32;;;;;;;9.70;9.20;;;;;;;0.02;100.00;102025.97;5013377;28;20036;-72
2022/12/18 04:46:06;;;;;;;9.52;9.05;;;;;;;-0.06;100.00;102032.41;5009224;28;20029;-70
2022/12/18 04:48:32;;;;;;;9.73;9.23;;;;;;;-0.06;100.00;102050.66;5011012;28;20026;-70
2022/12/18 04:50:57;;;;;;;9.50;9.10;;;;;;;0.04;100.00;102043.25;5015298;28;20489;-72
2022/12/18 04:53:23;;;;;;;9.77;9.27;;;;;;;-0.06;100.00;102053.25;5013639;28;20104;-72
2022/12/18 04:55:48;;;;;;;10.10;9.60;;;;;;;-0.14;100.00;102049.31;5014241;28;20041;-71
2022/12/18 04:58:14;;;;;;;9.80;9.30;;;;;;;-0.30;100.00;102034.31;5013519;28;20042;-72
2022/12/18 05:00:40;;;;;;;10.15;9.65;;;;;;;-0.28;100.00;102063.81;5016812;28;20607;-71
2022/12/18 05:03:05;;;;;;;10.13;9.63;;;;;;;-0.18;100.00;102081.63;5045113;28;20033;-72
2022/12/18 05:05:31;;;;;;;10.23;9.73;;;;;;;-0.13;100.00;102093.56;5013602;28;20047;-72
2022/12/18 05:07:56;;;;;;;10.07;9.57;;;;;;;-0.14;100.00;102091.03;5013659;28;20030;-72
2022/12/18 05:10:22;;;;;;;9.90;9.40;;;;;;;-0.21;100.00;102087.00;5015161;28;20033;-72
2022/12/18 05:12:59;;;;;;;9.88;9.38;;;;;;;-0.15;100.00;102097.16;5013030;28;20026;-72
2022/12/18 05:15:32;;;;;;;10.15;9.65;;;;;;;-0.16;100.00;102111.09;5015063;28;20064;-72
2022/12/18 05:17:58;;;;;;;10.38;9.88;;;;;;;-0.43;100.00;102092.31;5010301;28;20056;-71
2022/12/18 05:20:24;;;;;;;10.20;9.70;;;;;;;-0.46;100.00;102095.88;5012586;28;20484;-71
2022/12/18 05:22:52;;;;;;;9.68;9.23;;;;;;;-0.42;100.00;102102.66;5014135;28;20026;-71
2022/12/18 05:25:18;;;;;;;9.93;9.43;;;;;;;-0.42;100.00;102109.63;5013667;28;20030;-71
2022/12/18 05:27:43;;;;;;;10.02;9.52;;;;;;;-0.39;100.00;102119.91;5013501;28;20049;-71
2022/12/18 05:30:09;;;;;;;10.88;10.27;;;;;;;-0.33;100.00;102130.09;5013616;28;20040;-71
2022/12/18 05:32:36;;;;;;;9.48;9.07;;;;;;;-0.23;100.00;102135.75;5013529;28;20120;-72
2022/12/18 05:35:04;;;;;;;9.93;9.43;;;;;;;-0.18;100.00;102137.25;5011866;28;20030;-72
2022/12/18 05:37:30;;;;;;;10.88;10.27;;;;;;;-0.12;100.00;102149.19;5013268;28;20038;-72
2022/12/18 05:39:55;;;;;;;9.80;9.30;;;;;;;-0.09;100.00;102149.06;5013501;28;20547;-71
2022/12/18 05:42:21;;;;;;;9.85;9.35;;;;;;;-0.11;100.00;102150.88;5013228;28;20022;-72
2022/12/18 05:44:47;;;;;;;10.55;9.95;;;;;;;-0.16;100.00;102158.03;5012937;28;20392;-71
2022/12/18 05:47:12;;;;;;;9.50;9.10;;;;;;;-0.13;100.00;102155.31;5013305;28;20063;-71
2022/12/18 05:49:38;;;;;;;9.80;9.30;;;;;;;-0.10;100.00;102161.25;5012179;28;20125;-71
2022/12/18 05:52:03;;;;;;;9.73;9.30;;;;;;;-0.21;100.00;102160.03;5012352;28;20511;-72
2022/12/18 05:54:29;;;;;;;10.48;9.93;;;;;;;0.02;100.00;102172.91;5013065;28;20105;-71
2022/12/18 05:56:55;;;;;;;10.23;9.73;;;;;;;-0.01;100.00;102180.88;5011759;28;20484;-71
2022/12/18 05:59:20;;;;;;;9.93;9.43;;;;;;;0.06;100.00;102184.06;5012562;28;20030;-71
2022/12/18 06:01:46;;;;;;;9.82;9.32;;;;;;;0.16;100.00;102188.84;5013068;28;20476;-71
2022/12/18 06:04:11;;;;;;;9.38;8.98;;;;;;;0.11;100.00;102176.88;5013041;28;20385;-71
2022/12/18 06:06:37;;;;;;;9.45;9.05;;;;;;;0.20;100.00;102197.34;5013125;28;20036;-71
2022/12/18 06:09:08;;;;;;;9.52;9.05;;;;;;;0.28;100.00;102214.38;5015340;28;20470;-73
2022/12/18 06:11:36;;;;;;;9.75;9.25;;;;;;;0.32;100.00;102216.88;5011210;28;20033;-72
2022/12/18 06:14:03;;;;;;;9.80;9.30;;;;;;;0.45;100.00;102215.41;5012335;28;20034;-72
2022/12/18 06:16:29;;;;;;;9.98;9.48;;;;;;;0.41;100.00;102219.91;5013216;28;20037;-72
2022/12/18 06:19:01;;;;;;;9.63;9.15;;;;;;;0.44;100.00;102225.00;5025806;28;20461;-71
2022/12/18 06:21:28;;;;;;;9.52;9.02;;;;;;;0.18;100.00;102222.69;5012750;28;20088;-71
2022/12/18 06:23:53;;;;;;;9.48;9.07;;;;;;;0.37;100.00;102222.72;5011632;28;20018;-72
2022/12/18 06:26:19;;;;;;;9.63;9.15;;;;;;;0.14;100.00;102242.81;5013751;28;20022;-72
2022/12/18 06:28:45;;;;;;;9.38;8.98;;;;;;;0.43;100.00;102238.09;5011661;28;20030;-73
2022/12/18 06:31:11;;;;;;;10.55;9.95;;;;;;;0.27;100.00;102236.16;5011145;28;20108;-74
2022/12/18 06:33:38;;;;;;;9.65;9.20;;;;;;;0.17;100.00;102241.88;5011478;28;20469;-72
2022/12/18 06:36:11;;;;;;;9.45;9.05;;;;;;;0.25;100.00;102239.78;5013102;28;20048;-72
2022/12/18 06:38:39;;;;;;;9.95;9.45;;;;;;;0.26;100.00;102247.53;5011168;28;20378;-71
2022/12/18 06:41:15;;;;;;;10.27;9.77;;;;;;;0.16;100.00;102243.63;5006927;28;20600;-71
2022/12/18 06:43:41;;;;;;;10.10;9.60;;;;;;;0.06;100.00;102238.84;5007393;28;20064;-71
2022/12/18 06:46:07;;;;;;;9.65;9.23;;;;;;;0.33;100.00;102262.94;5007011;28;20026;-73
2022/12/18 06:48:32;;;;;;;10.25;9.75;;;;;;;0.54;100.00;102264.63;5011677;28;20061;-72
2022/12/18 06:50:58;;;;;;;10.10;9.60;;;;;;;0.31;100.00;102272.59;5012300;28;20049;-73
2022/12/18 06:53:25;;;;;;;11.15;10.55;;;;;;;0.30;100.00;102276.97;5006954;28;20050;-73
2022/12/18 06:55:50;;;;;;;9.65;9.20;;;;;;;0.35;100.00;102280.22;5010759;28;20084;-73
2022/12/18 06:58:17;;;;;;;10.02;9.52;;;;;;;0.42;100.00;102291.25;5011085;28;20025;-72
2022/12/18 07:00:42;;;;;;;10.13;9.63;;;;;;;0.58;100.00;102304.47;5012883;28;20025;-71
2022/12/18 07:03:08;;;;;;;10.88;10.27;;;;;;;0.33;100.00;102289.88;5012167;28;20100;-72
2022/12/18 07:05:33;;;;;;;10.43;9.82;;;;;;;0.60;100.00;102298.28;5010826;28;20408;-72
2022/12/18 07:07:59;;;;;;;10.25;9.75;;;;;;;0.63;100.00;102305.97;5012658;28;20032;-74
2022/12/18 07:10:25;;;;;;;9.73;9.23;;;;;;;0.61;100.00;102306.97;5011045;28;20041;-71
2022/12/18 07:12:50;;;;;;;9.75;9.25;;;;;;;0.38;100.00;102292.31;5009324;28;20126;-72
2022/12/18 07:15:16;;;;;;;9.98;9.48;;;;;;;0.60;100.00;102306.13;5012344;28;20026;-73
2022/12/18 07:17:41;;;;;;;9.73;9.23;;;;;;;0.67;100.00;102310.16;5010448;28;20059;-72
2022/12/18 07:20:08;;;;;;;9.45;9.00;;;;;;;0.74;100.00;102311.59;5011225;28;20041;-72
2022/12/18 07:22:33;;;;;;;9.75;9.25;;;;;;;0.84;100.00;102314.63;5009130;28;20068;-71
2022/12/18 07:24:59;;;;;;;10.07;9.57;;;;;;;0.96;100.00;102316.72;5010809;28;20034;-72
2022/12/18 07:27:25;;;;;;;9.90;9.40;;;;;;;1.12;100.00;102327.31;5006579;28;20099;-71
2022/12/18 07:29:50;;;;;;;9.70;9.20;;;;;;;1.55;100.00;102330.56;5010953;28;20025;-72
2022/12/18 07:32:15;;;;;;;9.88;9.38;;;;;;;1.27;100.00;102318.78;5011784;28;20028;-72
2022/12/18 07:34:41;;;;;;;9.70;9.20;;;;;;;1.46;100.00;102333.59;5006404;28;20022;-70
2022/12/18 07:37:06;;;;;;;9.70;9.20;;;;;;;2.07;100.00;102347.22;5011093;28;20030;-71
2022/12/18 07:39:32;;;;;;;11.15;10.52;;;;;;;1.72;100.00;102329.75;5008881;28;20057;-71
2022/12/18 07:44:41;;;;;;;8.77;8.38;;;;;;;4.58;100.00;102337.03;5008664;28;20033;-71
2022/12/18 07:47:07;;;;;;;9.23;8.77;;;;;;;2.54;100.00;102315.19;5009255;28;20030;-71
2022/12/18 07:49:32;;;;;;;9.13;8.73;;;;;;;5.04;100.00;102339.50;5011180;28;20037;-71
2022/12/18 07:51:58;;;;;;;8.80;8.40;;;;;;;5.04;100.00;102347.41;5011133;28;20052;-70
2022/12/18 07:54:24;;;;;;;10.93;10.30;;;;;;;4.32;100.00;102335.09;5010029;28;20034;-72
2022/12/18 07:56:50;;;;;;;9.60;9.10;;;;;;;5.57;100.00;102355.50;5010822;28;20034;-71
2022/12/18 07:59:16;;;;;;;9.68;9.18;;;;;;;6.12;100.00;102350.19;5018697;28;20037;-71
2022/12/18 08:01:41;;;;;;;9.27;8.77;;;;;;;5.16;100.00;102362.44;5008082;28;20025;-72
2022/12/18 08:04:07;;;;;;;9.20;8.80;;;;;;;5.26;100.00;102374.06;5011128;28;20040;-71
2022/12/18 08:06:32;;;;;;;9.30;8.85;;;;;;;3.80;100.00;102380.94;5010467;28;20030;-72
2022/12/18 08:08:58;;;;;;;9.60;9.10;;;;;;;3.71;100.00;102381.47;5013497;28;20033;-71
2022/12/18 08:11:25;;;;;;;9.98;9.48;;;;;;;2.99;100.00;102380.06;5015143;28;20030;-73
2022/12/18 08:13:53;;;;;;;10.07;9.57;;;;;;;2.51;100.00;102387.84;5014420;28;20045;-72
2022/12/18 08:16:19;;;;;;;10.23;9.73;;;;;;;2.31;100.00;102381.81;5013793;28;20034;-71
2022/12/18 08:18:45;;;;;;;10.65;10.13;;;;;;;2.04;100.00;102373.53;5010844;28;20463;-71
2022/12/18 08:21:32;;;;;;;10.50;10.00;;;;;;;2.23;100.00;102391.81;5014516;28;20018;-72
2022/12/18 08:24:00;;;;;;;10.50;10.00;;;;;;;1.83;100.00;102398.13;5015496;28;20041;-73
2022/12/18 08:26:29;;;;;;;10.73;10.20;;;;;;;1.74;100.00;102402.00;5015136;28;20105;-73
2022/12/18 08:28:57;;;;;;;10.18;9.68;;;;;;;1.31;100.00;102395.28;5014269;28;20037;-73
2022/12/18 08:31:24;;;;;;;10.68;10.10;;;;;;;1.55;100.00;102406.44;5012785;28;20121;-73
2022/12/18 08:33:50;;;;;;;10.30;9.80;;;;;;;1.54;100.00;102404.69;5041662;28;20040;-72
2022/12/18 08:36:16;;;;;;;12.07;11.38;;;;;;;1.39;100.00;102391.41;5013221;28;20097;-75
2022/12/18 08:38:42;;;;;;;10.38;9.88;;;;;;;1.02;100.00;102392.19;5009419;28;20025;-73
2022/12/18 08:41:09;;;;;;;10.95;10.35;;;;;;;0.91;100.00;102404.06;5009302;28;20032;-73
2022/12/18 08:46:23;;;;;;;10.35;9.85;;;;;;;0.98;100.00;102419.41;5010927;28;20076;-76
2022/12/18 08:48:51;;;;;;;10.50;10.00;;;;;;;0.59;100.00;102390.63;5014653;28;20045;-80
2022/12/18 08:51:19;;;;;;;10.52;10.00;;;;;;;0.75;100.00;102402.09;5019774;28;20117;-78
2022/12/18 08:53:46;;;;;;;9.95;9.45;;;;;;;0.81;100.00;102401.84;5018376;28;20492;-77
2022/12/18 08:56:12;;;;;;;10.30;9.80;;;;;;;0.84;100.00;102406.06;5015732;28;20046;-72
2022/12/18 08:58:39;;;;;;;10.77;10.18;;;;;;;0.98;100.00;102405.50;5011367;28;20022;-76
2022/12/18 09:01:08;;;;;;;11.48;10.80;;;;;;;0.89;100.00;102421.56;5012598;28;20038;-76
2022/12/18 09:03:34;;;;;;;10.35;9.82;;;;;;;0.98;100.00;102418.56;5013477;28;20018;-70
2022/12/18 09:05:59;;;;;;;10.93;10.23;;;;;;;0.80;100.00;102421.03;5008045;28;20129;-72
2022/12/18 09:08:25;;;;;;;10.63;10.02;;;;;;;0.91;100.00;102415.34;5010456;28;20034;-73
2022/12/18 09:10:51;;;;;;;9.88;9.38;;;;;;;0.98;100.00;102419.41;5013228;28;20630;-71
2022/12/18 09:13:18;;;;;;;11.75;11.05;;;;;;;0.85;100.00;102417.38;5009850;28;20100;-72
2022/12/18 09:15:46;;;;;;;10.15;9.65;;;;;;;0.85;100.00;102420.00;5008394;28;20381;-71
2022/12/18 09:18:13;;;;;;;10.45;9.93;;;;;;;0.75;100.00;102417.78;5011228;28;20062;-71
2022/12/18 09:20:39;;;;;;;10.13;9.63;;;;;;;0.70;100.00;102422.34;5009806;28;20445;-70
2022/12/18 09:23:06;;;;;;;10.65;10.05;;;;;;;0.94;100.00;102430.03;5011754;28;20145;-71
2022/12/18 09:25:33;;;;;;;10.05;9.55;;;;;;;0.84;100.00;102440.03;5013187;28;20536;-71
2022/12/18 09:28:00;;;;;;;9.80;9.30;;;;;;;0.87;100.00;102436.44;5013615;28;20547;-70
2022/12/18 09:30:26;;;;;;;9.95;9.45;;;;;;;0.97;100.00;102438.63;5011353;28;20037;-71
2022/12/18 09:32:54;;;;;;;10.25;9.73;;;;;;;0.98;100.00;102434.22;5011663;28;20503;-71
2022/12/18 09:35:20;;;;;;;9.80;9.30;;;;;;;0.74;100.00;102436.97;5013225;28;20025;-71
2022/12/18 09:37:46;;;;;;;9.95;9.45;;;;;;;0.73;100.00;102437.03;5013122;28;20046;-71
2022/12/18 09:40:18;;;;;;;10.02;9.52;;;;;;;0.74;100.00;102428.28;5010951;28;20037;-71
2022/12/18 09:42:48;;;;;;;9.85;9.35;;;;;;;0.76;100.00;102442.13;5012039;28;20030;-71
2022/12/18 09:45:16;;;;;;;9.88;9.38;;;;;;;0.72;100.00;102438.78;5013162;28;20022;-71
2022/12/18 09:47:45;;;;;;;10.00;9.50;;;;;;;0.63;100.00;102428.72;5009125;28;20079;-71
2022/12/18 09:50:28;;;;;;;10.15;9.65;;;;;;;0.49;100.00;102450.19;5011954;28;20034;-71
2022/12/18 09:52:58;;;;;;;9.75;9.25;;;;;;;0.55;100.00;102446.47;5012548;28;20405;-71
2022/12/18 09:55:37;;;;;;;10.43;9.88;;;;;;;0.80;100.00;102472.41;5011157;28;20133;-71
2022/12/18 09:58:29;;;;;;;10.40;9.90;;;;;;;0.75;100.00;102463.94;5011384;28;20105;-70
2022/12/18 10:00:55;;;;;;;9.82;9.32;;;;;;;0.80;100.00;102470.66;5011300;28;20064;-70
2022/12/18 10:03:21;;;;;;;10.10;9.60;;;;;;;0.86;100.00;102476.56;5012743;28;20026;-71
2022/12/18 10:06:05;;;;;;;10.18;9.68;;;;;;;0.64;100.00;102477.44;5012863;28;20022;-71
2022/12/18 10:08:58;;;;;;;10.20;9.70;;;;;;;0.85;100.00;102477.47;5009123;28;20060;-71
2022/12/18 10:11:54;;;;;;;11.02;10.40;;;;;;;0.53;100.00;102475.28;5009303;28;20038;-71
2022/12/18 10:14:29;;;;;;;11.10;10.45;;;;;;;0.37;100.00;102482.03;5011123;28;20030;-71
2022/12/18 10:17:13;;;;;;;10.00;9.50;;;;;;;0.65;100.00;102504.41;5012521;28;20029;-71
2022/12/18 10:20:04;;;;;;;10.40;9.85;;;;;;;0.35;100.00;102507.31;5006141;28;20084;-71
2022/12/18 10:22:58;;;;;;;10.68;10.10;;;;;;;0.44;100.00;102509.59;5009028;28;20034;-72
2022/12/18 10:25:48;;;;;;;11.75;11.05;;;;;;;0.62;100.00;102508.00;5010431;28;20737;-71
2022/12/18 10:28:17;;;;;;;10.32;9.82;;;;;;;0.30;100.00;102511.06;5011674;28;20099;-71
2022/12/18 10:30:43;;;;;;;9.82;9.32;;;;;;;0.17;100.00;102518.50;5011360;28;20022;-71
2022/12/18 10:33:20;;;;;;;10.32;9.82;;;;;;;0.30;100.00;102513.66;5012210;28;20041;-72
2022/12/18 10:35:52;;;;;;;10.05;9.55;;;;;;;0.34;100.00;102515.22;5001312;28;20040;-71
2022/12/18 10:38:17;;;;;;;11.45;10.75;;;;;;;0.30;100.00;102529.31;5010932;28;20033;-71
2022/12/18 10:41:03;;;;;;;10.02;9.52;;;;;;;0.38;100.00;102522.88;5011385;28;20022;-71
2022/12/18 10:43:34;;;;;;;10.88;10.27;;;;;;;0.55;100.00;102524.81;5010055;28;20029;-71
2022/12/18 10:46:05;;;;;;;9.88;9.38;;;;;;;0.44;100.00;102524.38;5010683;28;20024;-71
2022/12/18 10:48:33;;;;;;;10.77;10.18;;;;;;;0.32;100.00;102530.94;5021786;28;20071;-71
2022/12/18 10:50:59;;;;;;;10.32;9.82;;;;;;;0.53;100.00;102531.88;5011668;28;20025;-71
2022/12/18 10:53:28;;;;;;;10.18;9.68;;;;;;;0.33;100.00;102530.03;5011513;28;20416;-70
2022/12/18 10:56:01;;;;;;;9.73;9.23;;;;;;;0.17;100.00;102529.78;5012085;28;20409;-70
2022/12/18 10:58:33;;;;;;;10.85;10.25;;;;;;;0.09;100.00;102494.47;5010539;28;20052;-72
2022/12/18 11:01:16;;;;;;;10.50;9.98;;;;;;;0.41;100.00;102542.78;5010632;28;20038;-71
2022/12/18 11:03:54;;;;;;;11.00;10.40;;;;;;;0.20;100.00;102547.06;5011966;28;20111;-71
2022/12/18 11:06:24;;;;;;;10.20;9.70;;;;;;;0.33;100.00;102550.06;5011705;28;20018;-71
2022/12/18 11:09:19;;;;;;;10.55;9.95;;;;;;;0.26;100.00;102562.50;5012118;28;20105;-71
2022/12/18 11:11:56;;;;;;;11.35;10.68;;;;;;;0.22;100.00;102535.69;5006926;28;20164;-71
2022/12/18 11:14:32;;;;;;;10.25;9.75;;;;;;;0.15;100.00;102549.88;5010100;28;20030;-71
2022/12/18 11:16:59;;;;;;;10.55;9.98;;;;;;;0.10;100.00;102541.38;5008599;28;20532;-71
2022/12/18 11:19:36;;;;;;;10.80;10.20;;;;;;;0.14;100.00;102545.53;5007286;28;20064;-71
2022/12/18 11:22:18;;;;;;;10.00;9.50;;;;;;;0.16;100.00;102551.56;5010089;28;20030;-71
2022/12/18 11:24:54;;;;;;;11.50;10.82;;;;;;;0.21;100.00;102552.22;5010088;28;20030;-70
2022/12/18 11:27:20;;;;;;;10.02;9.52;;;;;;;0.24;100.00;102561.72;5026085;28;20397;-71
2022/12/18 11:30:12;;;;;;;10.27;9.77;;;;;;;-0.07;100.00;102541.16;5010382;28;20029;-72
2022/12/18 11:32:46;;;;;;;11.18;10.57;;;;;;;0.05;100.00;102558.94;5010465;28;20558;-70
2022/12/18 11:35:28;;;;;;;12.97;12.10;;;;;;;0.24;100.00;102577.38;5008467;28;20030;-71
2022/12/18 11:38:02;;;;;;;10.02;9.52;;;;;;;0.27;100.00;102562.44;5010032;28;20458;-71
2022/12/18 11:40:36;;;;;;;10.52;9.95;;;;;;;0.19;100.00;102568.88;5009816;28;20049;-71